Time;durP1;ratioP1;P1;durP2;ratioP2;P2;SDS_P1;SDS_P2;PMS_P1;PMS_P2;Temp;Humidity;BMP_temperature;BMP_pressure;BME280_temperature;BME280_humidity;BME280_pressure;Samples;Min_cycle;Max_cycle;Signal;HPM_P1;HPM_P2
2023/06/21 00:00:40;;;;;;;37.10;8.55;;;;;;;;;;4899382;29;20020;-69
2023/06/21 00:03:06;;;;;;;39.45;9.07;;;;;;;;;;4900516;29;20032;-69
2023/06/21 00:05:33;;;;;;;24.77;8.80;;;;;;;;;;4900063;29;20032;-69
2023/06/21 00:07:59;;;;;;;31.45;9.45;;;;;;;;;;4900251;29;20029;-70
2023/06/21 00:10:28;;;;;;;33.25;8.80;;;;;;;;;;4900322;29;20379;-70
2023/06/21 00:12:54;;;;;;;32.42;8.65;;;;;;;;;;4900307;29;20105;-69
2023/06/21 00:15:21;;;;;;;31.95;8.73;;;;;;;;;;4900165;29;20047;-70
2023/06/21 00:17:48;;;;;;;36.15;8.93;;;;;;;;;;4899752;29;20036;-69
2023/06/21 00:20:14;;;;;;;40.92;9.73;;;;;;;;;;4883368;29;20032;-69
2023/06/21 00:22:45;;;;;;;31.10;8.43;;;;;;;;;;4900155;29;20060;-69
2023/06/21 00:25:11;;;;;;;;;;;;;;;;;;4900511;29;20025;-69
2023/06/21 00:27:38;;;;;;;32.45;9.23;;;;;;;;;;4899943;29;19954;-69
2023/06/21 00:30:04;;;;;;;30.73;9.07;;;;;;;;;;4899880;29;20043;-69
2023/06/21 00:32:30;;;;;;;34.08;8.70;;;;;;;;;;4899545;29;20028;-70
2023/06/21 00:34:57;;;;;;;31.38;9.55;;;;;;;;;;4900182;29;20039;-69
2023/06/21 00:37:26;;;;;;;32.30;9.50;;;;;;;;;;4899710;29;20041;-69
2023/06/21 00:39:53;;;;;;;28.15;8.68;;;;;;;;;;4899701;29;20029;-69
2023/06/21 00:42:19;;;;;;;34.08;9.80;;;;;;;;;;4899803;29;20029;-69
2023/06/21 00:44:45;;;;;;;30.88;9.27;;;;;;;;;;4899719;29;20031;-69
2023/06/21 00:47:12;;;;;;;33.08;9.05;;;;;;;;;;4882560;29;20028;-70
2023/06/21 00:49:38;;;;;;;35.67;8.80;;;;;;;;;;4899746;29;20595;-69
2023/06/21 00:52:05;;;;;;;25.00;8.60;;;;;;;;;;4899826;29;20040;-69
2023/06/21 00:54:35;;;;;;;30.38;9.50;;;;;;;;;;4899450;29;20021;-70
2023/06/21 00:57:03;;;;;;;28.07;9.07;;;;;;;;;;4899713;29;20036;-70
2023/06/21 00:59:29;;;;;;;33.88;9.25;;;;;;;;;;4899725;29;20036;-69
2023/06/21 01:01:56;;;;;;;31.55;9.27;;;;;;;;;;4899000;29;20029;-69
2023/06/21 01:04:23;;;;;;;34.63;8.63;;;;;;;;;;4899453;29;20032;-69
2023/06/21 01:07:13;;;;;;;36.35;9.63;;;;;;;;;;4899444;29;20478;-69
2023/06/21 01:09:58;;;;;;;31.60;8.82;;;;;;;;;;4887223;29;20051;-69
2023/06/21 01:12:43;;;;;;;34.88;9.23;;;;;;;;;;4898322;29;20043;-69
2023/06/21 01:15:14;;;;;;;37.22;9.63;;;;;;;;;;4899179;29;20515;-70
2023/06/21 01:17:40;;;;;;;;;;;;;;;;;;4899022;29;20126;-69
2023/06/21 01:20:14;;;;;;;33.58;9.27;;;;;;;;;;4899163;29;20373;-69
2023/06/21 01:22:59;;;;;;;29.40;9.35;;;;;;;;;;4899089;29;20055;-69
2023/06/21 01:25:45;;;;;;;37.58;9.60;;;;;;;;;;4898949;29;20453;-69
2023/06/21 01:28:31;;;;;;;37.63;9.10;;;;;;;;;;4898880;29;20512;-70
2023/06/21 01:30:58;;;;;;;40.80;9.48;;;;;;;;;;4898572;29;20028;-69
2023/06/21 01:33:26;;;;;;;38.33;9.55;;;;;;;;;;4899251;29;20055;-69
2023/06/21 01:35:54;;;;;;;33.75;8.77;;;;;;;;;;4898735;29;20035;-69
2023/06/21 01:38:21;;;;;;;29.25;9.02;;;;;;;;;;4898770;29;20044;-69
2023/06/21 01:40:47;;;;;;;36.45;8.88;;;;;;;;;;4881891;29;20404;-69
2023/06/21 01:43:14;;;;;;;36.80;10.13;;;;;;;;;;4898710;29;20409;-69
2023/06/21 01:45:41;;;;;;;34.92;8.18;;;;;;;;;;4898799;29;20024;-69
2023/06/21 01:48:07;;;;;;;32.05;8.75;;;;;;;;;;4898825;29;20024;-69
2023/06/21 01:50:35;;;;;;;37.55;9.27;;;;;;;;;;4882010;29;20040;-70
2023/06/21 01:53:02;;;;;;;30.23;9.05;;;;;;;;;;4898763;29;20028;-69
2023/06/21 01:55:29;;;;;;;38.83;9.35;;;;;;;;;;4881756;29;20027;-69
2023/06/21 01:57:56;;;;;;;32.25;9.38;;;;;;;;;;4898246;29;20424;-69
2023/06/21 02:00:23;;;;;;;29.27;8.45;;;;;;;;;;4898303;29;20415;-69
2023/06/21 02:03:03;;;;;;;40.38;9.23;;;;;;;;;;4898474;29;20087;-69
2023/06/21 02:05:31;;;;;;;40.05;9.95;;;;;;;;;;4898520;29;20029;-69
2023/06/21 02:08:00;;;;;;;33.17;9.48;;;;;;;;;;4898186;29;20088;-69
2023/06/21 02:10:26;;;;;;;30.30;9.50;;;;;;;;;;4898288;29;20028;-70
2023/06/21 02:12:52;;;;;;;34.88;9.50;;;;;;;;;;4898387;29;20029;-70
2023/06/21 02:15:19;;;;;;;29.67;9.30;;;;;;;;;;4897739;29;20024;-69
2023/06/21 02:17:48;;;;;;;33.10;9.90;;;;;;;;;;4898018;29;20059;-70
2023/06/21 02:20:14;;;;;;;32.42;9.70;;;;;;;;;;4897954;29;20025;-70
2023/06/21 02:22:41;;;;;;;30.40;9.68;;;;;;;;;;4897533;29;20068;-70
2023/06/21 02:25:09;;;;;;;33.20;9.82;;;;;;;;;;4881319;29;20021;-69
2023/06/21 02:27:35;;;;;;;26.65;9.05;;;;;;;;;;4897761;29;20043;-69
2023/06/21 02:30:02;;;;;;;28.27;9.10;;;;;;;;;;4897419;29;20036;-69
2023/06/21 02:32:28;;;;;;;27.65;8.73;;;;;;;;;;4897661;29;20036;-70
2023/06/21 02:34:55;;;;;;;36.30;8.77;;;;;;;;;;4897766;29;20381;-69
2023/06/21 02:37:21;;;;;;;31.23;10.45;;;;;;;;;;4897776;29;20040;-69
2023/06/21 02:39:47;;;;;;;32.55;9.43;;;;;;;;;;4897574;29;20498;-69
2023/06/21 02:42:14;;;;;;;28.77;8.57;;;;;;;;;;4897865;29;20028;-69
2023/06/21 02:44:41;;;;;;;31.45;9.00;;;;;;;;;;4897198;29;20025;-69
2023/06/21 02:47:08;;;;;;;34.13;9.10;;;;;;;;;;4897432;29;20028;-70
2023/06/21 02:49:36;;;;;;;33.78;9.40;;;;;;;;;;4897578;29;20038;-70
2023/06/21 02:52:04;;;;;;;30.65;9.00;;;;;;;;;;4897359;29;20486;-69
2023/06/21 02:54:30;;;;;;;28.65;9.27;;;;;;;;;;4897678;29;20028;-69
2023/06/21 02:56:57;;;;;;;21.95;8.35;;;;;;;;;;4897662;29;20028;-70
2023/06/21 02:59:23;;;;;;;33.67;10.40;;;;;;;;;;4880194;29;20040;-70
2023/06/21 03:01:50;;;;;;;30.83;9.43;;;;;;;;;;4897145;29;20054;-70
2023/06/21 03:04:16;;;;;;;37.15;9.90;;;;;;;;;;4880966;29;20062;-69
2023/06/21 03:06:43;;;;;;;29.67;9.25;;;;;;;;;;4897193;29;20028;-70
2023/06/21 03:09:09;;;;;;;30.35;9.45;;;;;;;;;;4897147;29;20379;-69
2023/06/21 03:11:36;;;;;;;37.97;9.07;;;;;;;;;;4880490;29;20028;-69
2023/06/21 03:14:02;;;;;;;29.63;8.82;;;;;;;;;;4896932;29;20532;-70
2023/06/21 03:16:29;;;;;;;32.30;9.20;;;;;;;;;;4897175;29;20021;-69
2023/06/21 03:18:56;;;;;;;36.72;10.00;;;;;;;;;;4897316;29;20044;-69
2023/06/21 03:21:22;;;;;;;29.30;8.45;;;;;;;;;;4897134;29;20032;-70
2023/06/21 03:23:49;;;;;;;30.48;9.27;;;;;;;;;;4896896;29;20044;-70
2023/06/21 03:26:16;;;;;;;26.25;9.05;;;;;;;;;;4896737;29;20033;-69
2023/06/21 03:28:42;;;;;;;24.88;8.88;;;;;;;;;;4896951;29;20032;-69
2023/06/21 03:31:08;;;;;;;37.15;9.77;;;;;;;;;;4897073;29;20421;-69
2023/06/21 03:33:35;;;;;;;27.70;9.43;;;;;;;;;;4897293;29;20035;-69
2023/06/21 03:36:03;;;;;;;28.73;8.52;;;;;;;;;;4900293;29;20050;-70
2023/06/21 03:38:30;;;;;;;32.92;8.80;;;;;;;;;;4883947;29;20044;-69
2023/06/21 03:40:56;;;;;;;26.73;9.25;;;;;;;;;;4900492;29;20033;-70
2023/06/21 03:43:22;;;;;;;37.58;9.77;;;;;;;;;;4900745;29;20466;-69
2023/06/21 03:45:49;;;;;;;29.23;9.10;;;;;;;;;;4900734;29;20029;-70
2023/06/21 03:48:15;;;;;;;25.13;8.80;;;;;;;;;;4900835;29;20033;-69
2023/06/21 03:50:41;;;;;;;26.75;9.45;;;;;;;;;;4900540;29;20028;-69
2023/06/21 03:53:07;;;;;;;26.35;9.27;;;;;;;;;;4883681;29;20028;-69
2023/06/21 03:55:37;;;;;;;32.55;9.23;;;;;;;;;;4900188;29;20489;-69
2023/06/21 03:58:04;;;;;;;30.48;9.02;;;;;;;;;;4900528;29;20044;-69
2023/06/21 04:00:30;;;;;;;31.60;8.95;;;;;;;;;;4900248;29;20382;-69
2023/06/21 04:02:57;;;;;;;23.23;9.13;;;;;;;;;;4900585;29;20032;-69
2023/06/21 04:05:23;;;;;;;29.95;9.32;;;;;;;;;;4900327;29;20032;-70
2023/06/21 04:07:49;;;;;;;34.90;9.70;;;;;;;;;;4900298;29;20029;-70
2023/06/21 04:10:16;;;;;;;29.75;9.70;;;;;;;;;;4900012;29;20506;-69
2023/06/21 04:12:42;;;;;;;32.97;10.07;;;;;;;;;;4900282;29;20041;-69
2023/06/21 04:15:09;;;;;;;29.00;8.82;;;;;;;;;;4900167;29;20029;-69
2023/06/21 04:17:36;;;;;;;31.15;9.18;;;;;;;;;;4900072;29;20033;-69
2023/06/21 04:20:07;;;;;;;29.80;8.10;;;;;;;;;;4883220;29;20565;-69
2023/06/21 04:22:34;;;;;;;31.58;9.98;;;;;;;;;;4899952;29;20413;-69
2023/06/21 04:25:00;;;;;;;32.72;9.30;;;;;;;;;;4899714;29;20512;-69
2023/06/21 04:27:26;;;;;;;29.17;9.13;;;;;;;;;;4900199;29;20037;-69
2023/06/21 04:29:53;;;;;;;30.17;9.18;;;;;;;;;;4899753;29;20036;-70
2023/06/21 04:32:20;;;;;;;34.47;9.68;;;;;;;;;;4899971;29;20025;-69
2023/06/21 04:34:47;;;;;;;31.02;9.05;;;;;;;;;;4899890;29;20028;-69
2023/06/21 04:37:14;;;;;;;29.73;8.40;;;;;;;;;;4899672;29;20029;-69
2023/06/21 04:39:40;;;;;;;35.30;8.70;;;;;;;;;;4899405;29;20039;-69
2023/06/21 04:42:07;;;;;;;27.48;8.55;;;;;;;;;;4899908;29;20033;-69
2023/06/21 04:44:33;;;;;;;32.40;9.43;;;;;;;;;;4899634;29;20485;-69
2023/06/21 04:47:02;;;;;;;30.95;9.13;;;;;;;;;;4899763;29;20029;-69
2023/06/21 04:49:30;;;;;;;30.50;9.13;;;;;;;;;;4899633;29;20096;-69
2023/06/21 04:51:57;;;;;;;26.13;8.35;;;;;;;;;;4899500;29;20408;-69
2023/06/21 04:54:28;;;;;;;29.88;9.20;;;;;;;;;;4899324;29;20041;-69
2023/06/21 04:56:54;;;;;;;29.58;9.70;;;;;;;;;;4899721;29;20028;-69
2023/06/21 04:59:21;;;;;;;28.48;8.93;;;;;;;;;;4899408;29;20401;-70
2023/06/21 05:01:47;;;;;;;30.52;8.82;;;;;;;;;;4899303;29;20401;-69
2023/06/21 05:04:13;;;;;;;30.08;8.52;;;;;;;;;;4899415;29;20033;-69
2023/06/21 05:06:40;;;;;;;26.02;8.65;;;;;;;;;;4899231;29;20088;-70
2023/06/21 05:09:08;;;;;;;29.17;8.65;;;;;;;;;;4898904;29;20056;-68
2023/06/21 05:11:36;;;;;;;35.60;9.50;;;;;;;;;;4899394;29;20025;-69
2023/06/21 05:14:03;;;;;;;31.83;9.35;;;;;;;;;;4897232;29;20021;-69
2023/06/21 05:16:29;;;;;;;30.90;9.00;;;;;;;;;;4898557;29;20417;-69
2023/06/21 05:18:55;;;;;;;24.10;9.07;;;;;;;;;;4898849;29;20033;-69
2023/06/21 05:21:22;;;;;;;27.13;8.75;;;;;;;;;;4898663;29;20035;-69
2023/06/21 05:23:48;;;;;;;32.53;9.27;;;;;;;;;;4897384;29;20052;-69
2023/06/21 05:26:14;;;;;;;28.30;9.15;;;;;;;;;;4898315;29;20076;-70
2023/06/21 05:28:40;;;;;;;29.63;8.68;;;;;;;;;;4899081;29;20032;-69
2023/06/21 05:31:07;;;;;;;31.05;8.98;;;;;;;;;;4898855;29;20029;-68
2023/06/21 05:33:33;;;;;;;30.55;9.25;;;;;;;;;;4899326;29;20488;-69
2023/06/21 05:36:00;;;;;;;34.08;9.68;;;;;;;;;;4898809;29;20383;-71
2023/06/21 05:38:26;;;;;;;42.97;10.32;;;;;;;;;;4898530;29;20051;-69
2023/06/21 05:40:52;;;;;;;29.38;9.20;;;;;;;;;;4898736;29;20016;-69
2023/06/21 05:43:18;;;;;;;27.77;9.30;;;;;;;;;;4898846;29;20039;-68
2023/06/21 05:45:45;;;;;;;32.90;9.50;;;;;;;;;;4898601;29;20087;-69
2023/06/21 05:48:11;;;;;;;29.77;9.30;;;;;;;;;;4898591;29;20401;-69
2023/06/21 05:50:37;;;;;;;24.73;9.13;;;;;;;;;;4898526;29;20028;-68
2023/06/21 05:53:04;;;;;;;32.72;9.27;;;;;;;;;;4898229;29;20016;-69
2023/06/21 05:55:30;;;;;;;29.10;9.10;;;;;;;;;;4898511;29;20025;-69
2023/06/21 05:57:56;;;;;;;26.15;9.55;;;;;;;;;;4898025;29;20040;-68
2023/06/21 06:00:23;;;;;;;27.40;9.15;;;;;;;;;;4898295;29;20459;-69
2023/06/21 06:02:49;;;;;;;60.40;10.85;;;;;;;;;;4887390;29;20501;-69
2023/06/21 06:05:16;;;;;;;31.33;8.93;;;;;;;;;;4869356;29;20043;-69
2023/06/21 06:07:42;;;;;;;29.73;9.05;;;;;;;;;;4892478;29;20040;-69
2023/06/21 06:10:09;;;;;;;22.40;8.00;;;;;;;;;;4898116;29;20401;-69
2023/06/21 06:12:35;;;;;;;44.17;9.80;;;;;;;;;;4884348;29;20461;-69
2023/06/21 06:15:02;;;;;;;43.78;10.68;;;;;;;;;;4894712;29;20024;-69
2023/06/21 06:17:28;;;;;;;42.05;10.18;;;;;;;;;;4897287;29;20037;-69
2023/06/21 06:19:54;;;;;;;35.55;9.25;;;;;;;;;;4894068;29;20372;-68
2023/06/21 06:22:21;;;;;;;30.80;9.25;;;;;;;;;;4895616;29;20474;-68
2023/06/21 06:24:48;;;;;;;99.45;15.63;;;;;;;;;;4896638;29;20099;-67
2023/06/21 06:27:15;;;;;;;29.80;9.55;;;;;;;;;;4879594;29;20047;-68
2023/06/21 06:29:41;;;;;;;28.27;8.82;;;;;;;;;;4897821;29;20035;-67
2023/06/21 06:32:07;;;;;;;412.05;26.10;;;;;;;;;;4895595;29;20032;-68
2023/06/21 06:34:34;;;;;;;132.98;14.60;;;;;;;;;;4897188;29;20056;-69
2023/06/21 06:37:00;;;;;;;69.22;11.27;;;;;;;;;;4896605;29;20053;-69
2023/06/21 06:39:26;;;;;;;41.97;9.38;;;;;;;;;;4897499;29;20020;-69
2023/06/21 06:41:53;;;;;;;59.75;10.35;;;;;;;;;;4897282;29;20095;-69
2023/06/21 06:44:19;;;;;;;29.52;9.65;;;;;;;;;;4880339;29;20393;-69
2023/06/21 06:46:45;;;;;;;26.08;8.55;;;;;;;;;;4897306;29;20036;-69
2023/06/21 06:49:11;;;;;;;19.58;7.47;;;;;;;;;;4896863;29;20375;-69
2023/06/21 06:51:40;;;;;;;23.05;8.02;;;;;;;;;;4896868;29;20032;-69
2023/06/21 06:54:06;;;;;;;29.77;7.47;;;;;;;;;;4896708;29;20028;-69
2023/06/21 06:56:33;;;;;;;28.55;7.40;;;;;;;;;;4898895;29;20024;-69
2023/06/21 06:58:59;;;;;;;18.58;6.80;;;;;;;;;;4889336;29;20038;-69
2023/06/21 07:01:27;;;;;;;22.55;7.28;;;;;;;;;;4904607;29;20032;-69
2023/06/21 07:03:54;;;;;;;20.40;6.63;;;;;;;;;;4897379;29;20024;-69
2023/06/21 07:06:21;;;;;;;25.83;7.43;;;;;;;;;;4905101;29;20035;-69
2023/06/21 07:08:47;;;;;;;22.38;6.90;;;;;;;;;;4906240;29;20019;-69
2023/06/21 07:11:14;;;;;;;28.60;7.45;;;;;;;;;;4906119;29;20408;-69
2023/06/21 07:13:40;;;;;;;25.33;7.82;;;;;;;;;;4915963;29;20020;-69
2023/06/21 07:16:06;;;;;;;30.17;7.43;;;;;;;;;;4915690;29;20028;-72
2023/06/21 07:18:33;;;;;;;17.90;6.68;;;;;;;;;;4899305;29;20494;-70
2023/06/21 07:20:59;;;;;;;19.65;7.25;;;;;;;;;;4889731;29;20027;-70
2023/06/21 07:23:27;;;;;;;27.13;7.88;;;;;;;;;;4895578;29;20058;-70
2023/06/21 07:25:53;;;;;;;24.27;7.68;;;;;;;;;;4896153;29;20035;-70
2023/06/21 07:28:20;;;;;;;24.65;7.82;;;;;;;;;;4896812;29;20031;-70
2023/06/21 07:30:46;;;;;;;22.65;7.03;;;;;;;;;;4896472;29;20033;-70
2023/06/21 07:33:12;;;;;;;24.08;7.38;;;;;;;;;;4896414;29;20032;-70
2023/06/21 07:35:38;;;;;;;26.02;7.22;;;;;;;;;;4899038;29;20075;-70
2023/06/21 07:38:06;;;;;;;24.50;7.25;;;;;;;;;;4905932;29;20092;-68
2023/06/21 07:40:33;;;;;;;23.08;7.53;;;;;;;;;;4905476;29;20020;-70
2023/06/21 07:42:59;;;;;;;21.67;6.82;;;;;;;;;;4911515;29;20024;-70
2023/06/21 07:45:25;;;;;;;25.75;7.10;;;;;;;;;;4915261;29;20032;-70
2023/06/21 07:47:52;;;;;;;20.15;7.22;;;;;;;;;;4906112;29;20043;-70
2023/06/21 07:50:19;;;;;;;28.40;7.80;;;;;;;;;;4906343;29;20033;-69
2023/06/21 07:52:45;;;;;;;25.27;7.55;;;;;;;;;;4904975;29;20035;-70
2023/06/21 07:55:12;;;;;;;23.10;6.80;;;;;;;;;;4899724;29;20068;-69
2023/06/21 07:57:38;;;;;;;26.70;7.30;;;;;;;;;;4905164;29;20445;-69
2023/06/21 08:00:11;;;;;;;18.52;7.40;;;;;;;;;;4905295;29;20020;-69
2023/06/21 08:02:38;;;;;;;20.70;6.95;;;;;;;;;;4885498;29;20039;-70
2023/06/21 08:05:05;;;;;;;23.20;7.47;;;;;;;;;;4905693;29;20034;-70
2023/06/21 08:07:31;;;;;;;22.67;7.05;;;;;;;;;;4890211;29;20080;-70
2023/06/21 08:09:57;;;;;;;23.80;6.93;;;;;;;;;;4880562;29;20025;-69
2023/06/21 08:12:24;;;;;;;21.33;7.82;;;;;;;;;;4882327;29;20486;-70
2023/06/21 08:14:50;;;;;;;22.75;7.47;;;;;;;;;;4892589;29;20055;-70
2023/06/21 08:17:16;;;;;;;21.90;7.18;;;;;;;;;;4890553;29;20043;-70
2023/06/21 08:19:43;;;;;;;20.95;6.97;;;;;;;;;;4890722;29;20039;-69
2023/06/21 08:22:09;;;;;;;23.17;6.70;;;;;;;;;;4894197;29;20052;-70
2023/06/21 08:24:35;;;;;;;20.38;7.10;;;;;;;;;;4894957;29;21312;-69
2023/06/21 08:27:02;;;;;;;23.67;7.63;;;;;;;;;;4898439;29;20096;-70
2023/06/21 08:29:28;;;;;;;24.98;7.43;;;;;;;;;;4899271;29;20040;-70
2023/06/21 08:31:54;;;;;;;22.65;6.80;;;;;;;;;;4897837;29;20100;-70
2023/06/21 08:34:20;;;;;;;21.17;6.82;;;;;;;;;;4899336;29;20028;-69
2023/06/21 08:36:47;;;;;;;24.40;7.13;;;;;;;;;;4900048;29;20024;-70
2023/06/21 08:39:13;;;;;;;18.65;6.95;;;;;;;;;;4898720;29;20068;-69
2023/06/21 08:41:40;;;;;;;25.98;7.60;;;;;;;;;;4889210;29;20030;-69
2023/06/21 08:44:06;;;;;;;20.65;6.78;;;;;;;;;;4899584;29;20429;-70
2023/06/21 08:46:34;;;;;;;20.83;6.95;;;;;;;;;;4884568;29;20553;-68
2023/06/21 08:49:01;;;;;;;22.02;6.55;;;;;;;;;;4880826;29;20017;-69
2023/06/21 08:51:28;;;;;;;22.95;6.70;;;;;;;;;;4880708;29;20029;-69
2023/06/21 08:54:00;;;;;;;21.50;7.15;;;;;;;;;;4882353;29;20042;-68
2023/06/21 08:56:29;;;;;;;18.30;6.55;;;;;;;;;;4891476;29;20524;-69
2023/06/21 08:59:09;;;;;;;17.65;6.20;;;;;;;;;;4895329;29;20032;-69
2023/06/21 09:01:40;;;;;;;26.13;7.22;;;;;;;;;;4904753;29;20032;-68
2023/06/21 09:04:08;;;;;;;27.60;7.10;;;;;;;;;;4903096;29;20039;-68
2023/06/21 09:06:35;;;;;;;24.67;6.90;;;;;;;;;;4904992;29;20023;-69
2023/06/21 09:09:01;;;;;;;25.92;6.82;;;;;;;;;;4903423;29;20513;-68
2023/06/21 09:11:28;;;;;;;28.35;6.82;;;;;;;;;;4900323;29;20393;-69
2023/06/21 09:13:55;;;;;;;22.00;6.60;;;;;;;;;;4897781;29;20028;-70
2023/06/21 09:16:24;;;;;;;19.58;6.22;;;;;;;;;;4905294;29;20028;-70
2023/06/21 09:18:50;;;;;;;22.27;6.68;;;;;;;;;;4907835;29;20039;-70
2023/06/21 09:21:18;;;;;;;16.05;5.97;;;;;;;;;;4906617;29;20029;-70
2023/06/21 09:23:44;;;;;;;23.02;6.60;;;;;;;;;;4890754;29;20051;-70
2023/06/21 09:26:11;;;;;;;20.00;6.20;;;;;;;;;;4905606;29;20013;-71
2023/06/21 09:28:38;;;;;;;20.23;6.47;;;;;;;;;;4897315;29;20021;-70
2023/06/21 09:31:04;;;;;;;22.55;6.03;;;;;;;;;;4897766;29;20474;-71
2023/06/21 09:33:31;;;;;;;24.52;5.97;;;;;;;;;;4897914;29;20033;-70
2023/06/21 09:35:57;;;;;;;19.75;6.10;;;;;;;;;;4898638;29;20033;-70
2023/06/21 09:38:26;;;;;;;16.05;5.85;;;;;;;;;;4892455;29;20036;-70
2023/06/21 09:40:52;;;;;;;18.55;6.20;;;;;;;;;;4907063;29;20028;-71
2023/06/21 09:43:20;;;;;;;14.18;5.82;;;;;;;;;;4906258;29;20031;-70
2023/06/21 09:45:59;;;;;;;17.00;6.10;;;;;;;;;;4906479;29;20028;-69
2023/06/21 09:48:25;;;;;;;16.25;5.53;;;;;;;;;;4905844;29;20028;-71
2023/06/21 09:50:54;;;;;;;19.27;5.72;;;;;;;;;;4898377;29;20031;-70
2023/06/21 09:53:24;;;;;;;17.50;5.68;;;;;;;;;;4897400;29;20035;-69
2023/06/21 09:55:51;;;;;;;17.67;5.90;;;;;;;;;;4903275;29;20500;-69
2023/06/21 09:58:17;;;;;;;22.77;5.75;;;;;;;;;;4907313;29;20028;-71
2023/06/21 10:00:44;;;;;;;18.08;5.72;;;;;;;;;;4906028;29;20021;-71
2023/06/21 10:03:11;;;;;;;21.20;5.32;;;;;;;;;;4896461;29;20393;-71
2023/06/21 10:05:52;;;;;;;17.92;5.18;;;;;;;;;;4897898;29;20025;-70
2023/06/21 10:08:23;;;;;;;17.98;5.78;;;;;;;;;;4897973;29;20037;-71
2023/06/21 10:10:49;;;;;;;17.65;5.60;;;;;;;;;;4898425;29;20028;-72
2023/06/21 10:13:16;;;;;;;17.42;5.15;;;;;;;;;;4897504;29;20028;-71
2023/06/21 10:15:48;;;;;;;15.45;5.28;;;;;;;;;;4898125;29;20492;-71
2023/06/21 10:18:16;;;;;;;21.63;6.00;;;;;;;;;;4905250;29;20046;-71
2023/06/21 10:20:43;;;;;;;17.77;5.32;;;;;;;;;;4917041;29;20029;-70
2023/06/21 10:23:12;;;;;;;14.75;5.10;;;;;;;;;;4916440;29;20406;-71
2023/06/21 10:25:39;;;;;;;14.25;5.45;;;;;;;;;;4915633;29;20087;-70
2023/06/21 10:28:07;;;;;;;22.60;5.78;;;;;;;;;;4897838;29;20029;-71
2023/06/21 10:30:34;;;;;;;22.92;5.68;;;;;;;;;;4897766;29;20396;-71
2023/06/21 10:33:04;;;;;;;16.30;4.97;;;;;;;;;;4897434;29;20040;-71
2023/06/21 10:35:34;;;;;;;20.70;6.60;;;;;;;;;;4899547;29;20107;-71
2023/06/21 10:38:01;;;;;;;;;;;;;;;;;;4916210;29;20040;-71
2023/06/21 10:40:28;;;;;;;22.73;5.50;;;;;;;;;;4898443;29;19907;-70
2023/06/21 10:42:58;;;;;;;18.70;5.30;;;;;;;;;;4914808;29;20042;-71
2023/06/21 10:45:24;;;;;;;12.67;4.93;;;;;;;;;;4903024;29;20029;-71
2023/06/21 10:47:54;;;;;;;16.33;5.60;;;;;;;;;;4908709;29;20796;-72
2023/06/21 10:50:20;;;;;;;;;;;;;;;;;;4904843;29;20040;-71
2023/06/21 10:52:48;;;;;;;17.88;5.10;;;;;;;;;;4896435;29;19911;-71
2023/06/21 10:55:14;;;;;;;15.35;4.85;;;;;;;;;;4908114;29;20552;-72
2023/06/21 10:57:41;;;;;;;16.95;4.45;;;;;;;;;;4905957;29;20046;-71
2023/06/21 11:00:08;;;;;;;22.33;5.30;;;;;;;;;;4899870;29;20389;-71
2023/06/21 11:02:35;;;;;;;19.65;5.10;;;;;;;;;;4907275;29;20433;-72
2023/06/21 11:05:20;;;;;;;16.10;4.72;;;;;;;;;;4914831;29;20028;-71
2023/06/21 11:07:50;;;;;;;13.93;5.38;;;;;;;;;;4910551;29;20029;-71
2023/06/21 11:10:17;;;;;;;20.83;5.20;;;;;;;;;;4897333;29;20032;-71
2023/06/21 11:12:43;;;;;;;16.77;4.70;;;;;;;;;;4897452;29;20039;-72
2023/06/21 11:15:10;;;;;;;17.05;5.00;;;;;;;;;;4897223;29;20020;-71
2023/06/21 11:17:36;;;;;;;13.52;4.60;;;;;;;;;;4897254;29;20063;-71
2023/06/21 11:20:22;;;;;;;38.70;5.80;;;;;;;;;;4896976;29;20031;-71
2023/06/21 11:23:15;;;;;;;16.05;4.97;;;;;;;;;;4892290;29;20036;-68
2023/06/21 11:25:49;;;;;;;13.80;4.60;;;;;;;;;;4894463;29;20047;-69
2023/06/21 11:28:21;;;;;;;21.17;4.88;;;;;;;;;;4878225;29;20033;-68
2023/06/21 11:30:59;;;;;;;17.33;4.63;;;;;;;;;;4878124;29;20031;-71
2023/06/21 11:33:29;;;;;;;13.02;4.50;;;;;;;;;;4898610;29;20034;-70
2023/06/21 11:36:08;;;;;;;18.25;5.38;;;;;;;;;;4898665;29;20398;-71
2023/06/21 11:38:35;;;;;;;13.77;4.60;;;;;;;;;;4915651;29;20527;-70
2023/06/21 11:41:02;;;;;;;13.38;4.88;;;;;;;;;;4915281;29;20032;-71
2023/06/21 11:43:28;;;;;;;19.75;4.60;;;;;;;;;;4915745;29;20044;-69
2023/06/21 11:46:00;;;;;;;15.60;5.60;;;;;;;;;;4915689;29;20026;-70
2023/06/21 11:48:29;;;;;;;15.75;5.22;;;;;;;;;;4915897;29;20036;-70
2023/06/21 11:50:56;;;;;;;11.93;4.70;;;;;;;;;;4915711;29;20028;-70
2023/06/21 11:53:24;;;;;;;15.70;5.40;;;;;;;;;;4907951;29;20032;-71
2023/06/21 11:55:54;;;;;;;15.27;4.88;;;;;;;;;;4883245;29;20481;-71
2023/06/21 11:58:21;;;;;;;18.27;5.07;;;;;;;;;;4894172;29;20041;-68
2023/06/21 12:00:47;;;;;;;15.88;5.05;;;;;;;;;;4914554;29;20042;-70
2023/06/21 12:03:14;;;;;;;19.42;5.38;;;;;;;;;;4902210;29;20032;-71
2023/06/21 12:05:48;;;;;;;15.43;5.35;;;;;;;;;;4884553;29;20025;-69
2023/06/21 12:08:15;;;;;;;18.75;4.55;;;;;;;;;;4892809;29;20027;-70
2023/06/21 12:10:41;;;;;;;14.45;5.00;;;;;;;;;;4885739;29;20051;-69
2023/06/21 12:13:08;;;;;;;11.90;4.70;;;;;;;;;;4881714;29;20037;-70
2023/06/21 12:15:34;;;;;;;15.75;5.03;;;;;;;;;;4881326;29;20397;-69
2023/06/21 12:18:02;;;;;;;16.25;4.80;;;;;;;;;;4881401;29;20043;-68
2023/06/21 12:20:29;;;;;;;21.58;5.18;;;;;;;;;;4881289;29;20021;-71
2023/06/21 12:22:55;;;;;;;20.58;5.75;;;;;;;;;;4880976;29;20059;-69
2023/06/21 12:25:21;;;;;;;15.00;4.90;;;;;;;;;;4881191;29;20032;-70
2023/06/21 12:27:57;;;;;;;23.40;5.38;;;;;;;;;;4896685;29;20040;-72
2023/06/21 12:30:27;;;;;;;17.65;4.90;;;;;;;;;;4899909;29;20043;-70
2023/06/21 12:32:55;;;;;;;12.45;5.13;;;;;;;;;;4900144;29;20025;-72
2023/06/21 12:35:22;;;;;;;18.90;5.53;;;;;;;;;;4897073;29;20043;-71
2023/06/21 12:37:48;;;;;;;17.95;5.05;;;;;;;;;;4890075;29;20528;-69
2023/06/21 12:40:17;;;;;;;15.25;5.40;;;;;;;;;;4881145;29;20025;-70
2023/06/21 12:42:45;;;;;;;14.43;5.07;;;;;;;;;;4881180;29;20036;-70
2023/06/21 12:45:12;;;;;;;18.40;5.75;;;;;;;;;;4880254;29;20638;-70
2023/06/21 12:47:42;;;;;;;19.52;5.20;;;;;;;;;;4898977;29;20501;-68
2023/06/21 12:50:08;;;;;;;19.87;5.50;;;;;;;;;;4879779;29;20047;-69
2023/06/21 12:52:34;;;;;;;18.50;5.60;;;;;;;;;;4887916;29;20025;-69
2023/06/21 12:55:01;;;;;;;17.65;5.22;;;;;;;;;;4888562;29;20032;-69
2023/06/21 12:57:36;;;;;;;13.43;5.82;;;;;;;;;;4889833;29;20025;-69
2023/06/21 13:00:03;;;;;;;19.48;5.60;;;;;;;;;;4890782;29;20040;-71
2023/06/21 13:02:29;;;;;;;17.38;6.40;;;;;;;;;;4881878;29;20023;-69
2023/06/21 13:04:56;;;;;;;13.38;4.90;;;;;;;;;;4886951;29;20024;-69
2023/06/21 13:07:22;;;;;;;16.73;5.65;;;;;;;;;;4887313;29;20033;-69
2023/06/21 13:09:49;;;;;;;12.13;4.85;;;;;;;;;;4880539;29;20438;-68
2023/06/21 13:12:16;;;;;;;12.95;4.97;;;;;;;;;;4891014;29;20035;-69
2023/06/21 13:14:42;;;;;;;14.25;5.30;;;;;;;;;;4882910;29;20040;-69
2023/06/21 13:17:08;;;;;;;13.98;5.15;;;;;;;;;;4871209;29;20033;-69
2023/06/21 13:19:38;;;;;;;15.00;5.38;;;;;;;;;;4880450;29;20041;-69
2023/06/21 13:22:05;;;;;;;16.83;5.60;;;;;;;;;;4884818;29;20031;-70
2023/06/21 13:24:31;;;;;;;14.20;5.40;;;;;;;;;;4887531;29;20028;-69
2023/06/21 13:26:58;;;;;;;17.67;5.22;;;;;;;;;;4883425;29;20046;-68
2023/06/21 13:29:24;;;;;;;14.50;5.68;;;;;;;;;;4885322;29;20025;-67
2023/06/21 13:31:51;;;;;;;17.52;5.43;;;;;;;;;;4863782;29;20044;-68
2023/06/21 13:34:17;;;;;;;16.65;5.45;;;;;;;;;;4880734;29;20037;-67
2023/06/21 13:36:43;;;;;;;17.15;5.75;;;;;;;;;;4876379;29;20036;-67
2023/06/21 13:39:10;;;;;;;17.75;5.35;;;;;;;;;;4863512;29;20069;-67
2023/06/21 13:41:37;;;;;;;14.25;5.20;;;;;;;;;;4880246;29;20025;-69
2023/06/21 13:44:03;;;;;;;15.57;5.40;;;;;;;;;;4862855;29;20037;-68
2023/06/21 13:46:30;;;;;;;16.63;4.97;;;;;;;;;;4879510;29;20113;-68
2023/06/21 13:48:56;;;;;;;20.65;5.25;;;;;;;;;;4886612;29;20031;-68
2023/06/21 13:51:22;;;;;;;16.45;5.22;;;;;;;;;;4883413;29;20486;-70
2023/06/21 13:53:49;;;;;;;19.42;5.63;;;;;;;;;;4879713;29;20508;-68
2023/06/21 13:56:15;;;;;;;15.10;5.35;;;;;;;;;;4879744;29;20032;-68
2023/06/21 13:58:45;;;;;;;18.83;5.25;;;;;;;;;;4879626;29;20033;-67
2023/06/21 14:01:11;;;;;;;13.50;5.15;;;;;;;;;;4879443;29;20108;-68
2023/06/21 14:03:37;;;;;;;16.88;5.45;;;;;;;;;;4884251;29;20043;-67
2023/06/21 14:06:04;;;;;;;16.95;5.28;;;;;;;;;;4884835;29;20040;-67
2023/06/21 14:08:30;;;;;;;15.18;4.90;;;;;;;;;;4879337;29;20033;-68
2023/06/21 14:10:57;;;;;;;17.08;4.90;;;;;;;;;;4879646;29;20514;-68
2023/06/21 14:13:23;;;;;;;15.05;5.00;;;;;;;;;;4891863;29;20032;-68
2023/06/21 14:15:49;;;;;;;14.13;4.95;;;;;;;;;;4897639;29;20028;-67
2023/06/21 14:18:15;;;;;;;21.23;5.28;;;;;;;;;;4897577;29;20051;-68
2023/06/21 14:20:42;;;;;;;18.40;5.53;;;;;;;;;;4897773;29;20029;-70
2023/06/21 14:23:08;;;;;;;22.00;6.20;;;;;;;;;;4897813;29;20521;-69
2023/06/21 14:25:34;;;;;;;13.30;5.10;;;;;;;;;;4897978;29;20032;-68
2023/06/21 14:28:01;;;;;;;20.33;5.15;;;;;;;;;;4880733;29;20032;-68
2023/06/21 14:30:27;;;;;;;12.27;5.03;;;;;;;;;;4897921;29;20028;-68
2023/06/21 14:32:53;;;;;;;17.13;5.28;;;;;;;;;;4898092;29;20032;-68